Create Custom Reports and Graphics: Custom Report

Latest Observations

MWA Stations

15 Minute Data | America/Los_Angeles
as of 5/4/26 6:49 AM PDT
Station Date Time Temp (°F) WindChill (°F) RH (%) Dew Pt (°F) Wind Dir (°) Wind Spd (mph) Wind Gust (mph) Solar Rad (W/m2) Pressure (mb) Daily Min Temp (°F) Daily Max Temp (°F) Daily Max Wind (mph) Daily Rain (In) Yest MinT (°F) Yest MaxT (°F) Yest MaxGst (mph) Yest Precip (In) MinBV Day (V)
MWA Office 5/4/26 0645 48.5   7.2 43.0 70   3 39.0   8.0 SW | 236 9.6   9.2 17.5   14.9 43   9 1,014.7   2.5 48.0   5.9 50.9   17.1 21.3   9.6 0.00 50.6 79.2 28.1 0.00 12.4   0.0
MWA OPS 5/4/26 0645 48.3   4.2 44.1 70   3 39.0   5.2 SW | 234 9.7   6.6 16.4   11.4 56   23 1,013.7   1.7 47.4   2.7 50.7   12.9 29.2   21.7 0.00 50.2 75.6 32.7 0.00 12.7   0.0
LV-PS 5/4/26 0645 50.0   10.2 - 57   28 35.4   7.5 NNW | 335 4.2   2.7 7.7   3.7 48   56 1,012.1   2.1 50.0   7.1 54.5   16.4 18.4   9.4 0.00 53.8 84.7 32.4 0.00 12.8   0.0
JV-PS 5/4/26 0645 51.2   9.3 - 55   24 35.6   6.2 W | 272 6.5   3.9 13.2   8.1 46   63 1,011.7   1.6 51.1   5.2 56.3   10.0 18.2   11.8 0.00 55.1 83.3 28.9 0.00 12.9   0.0
BDVWA 5/4/26 0645 47.9   14.0 - 52   25 31.1   3.5 WNW | 289 2.8   1.5 3.9   2.8 50   55 1,012.1   2.6 47.0   11.9 52.0   16.1 7.0   7.5 0.00 51.6 78.6 36.8 0.00 12.8   0.0
Newberry Springs 5/4/26 0645 58.2   5.8 - 48   4 38.8   3.2 W | 277 10.6   3.9 23.0   12.5 55   34 1,010.9   1.1 57.4   4.5 61.0   11.9 31.4   16.0 0.00 60.0 88.2 34.6 0.00 12.9   0.0
Pinon Hills 5/4/26 0645 37.6   22.6 - 70   43 28.7   2.8 SW | 217 2.4   1.0 4.4   5.3 50   48 1,015.5   7.2 36.8   20.5 47.1   16.0 24.8   3.3 0.00 44.2 70.1 28.7 0.00 12.8   0.0
Helendale 5/4/26 0645 49.0   3.8 44.0 70   1 39.8   3.5 SW | 216 12.6   11.4 18.8   15.1 59   40 1,012.9   1.4 48.2   1.6 54.4   3.5 21.7   9.2 0.00 49.8 80.1 33.3 0.00 12.7   0.0
Lenwood 5/4/26 0645 51.1   0.0 - 66   10 40.0   4.3 SW | 226 8.9   5.5 13.6   8.3 61   27 1,012.7   0.8 50.5   1.4 55.5   6.5 23.4   18.2 0.00 49.1 83.7 43.2 0.00 12.8   0.0
Oak Hills 5/4/26 0645 40.8   7.8 34.6   9.7 95   4 39.5   8.8 SSW | 194 6.7   0.2 13.2   0.0 48   10 1,015.4   2.4 40.2   8.4 42.8   13.2 20.2   7.0 0.00 42.6 60.8 32.0 0.00 12.9   0.0
Pipes Wash Canyon 5/4/26 0645 47.7   13.3 46.2 43   17 26.3   0.0 W | 260 2.3   0.3 5.7   0.4 49   78 1,011.2   2.4 43.7   12.9 48.2   16.4 7.9   1.5 0.00 46.8 74.9 23.2 0.00 12.8   0.1
Max     58.2 46.2 95 40.0 - 12.6 23.0 61 1,015.5 57.4 61.0 31.4 0.00 60.0 88.2 43.2 0.00 12.9
Avg     48.2 42.4 63 35.8 - 6.9 12.5 51 1,013.0 - - - - - - - - -
Min     37.6 34.6 43 26.3 - 2.3 3.9 43 1,010.9 36.8 42.8 7.0 0.00 42.6 60.8 23.2 0.00 12.4

Latest Observations

Map

15 Minute Data

Rainfall & ETo

MWA Stations

15 Minute Data | America/Los_Angeles
as of 5/4/26 6:49 AM PDT
Station Date Time Latest Rain (In) Daily Rain (In) Yest Precip (In) Month Precip (In) Season Precip (In) Daily ETo (in) Yest ETo (In) 7 Day ETo (in)
MWA Office 5/4/26 0645 0.00 0.00 0.00 0.00 4.30 0.003 0.24 1.59
MWA OPS 5/4/26 0645 0.00 0.00 0.00 0.00 9.32 0.003 0.23 1.62
LV-PS 5/4/26 0645 0.00 0.00 0.00 0.00 3.63 0.005 0.28 1.74
JV-PS 5/4/26 0645 0.00 0.00 0.00 0.00 6.38 0.005 0.30 1.80
BDVWA 5/4/26 0645 0.00 0.00 0.00 0.00 6.35 0.000 0.30 1.82
Newberry Springs 5/4/26 0645 0.00 0.00 0.00 0.00 2.70 0.013 0.29 1.92
Pinon Hills 5/4/26 0645 0.00 0.00 0.00 0.00 15.51 0.001 0.23 1.54
Helendale 5/4/26 0645 0.00 0.00 0.00 0.00 5.55 0.005 0.28 1.73
Lenwood 5/4/26 0645 0.00 0.00 0.00 0.00 4.24 0.006 0.31 1.80
Oak Hills 5/4/26 0645 0.00 0.00 0.00 0.00 14.72 0.000 0.14 1.42
Pipes Wash Canyon 5/4/26 0645 0.00 0.00 0.00 0.00 13.92 0.000 0.24 1.57
Max     0.00 0.00 0.00 0.00 15.51 0.013 0.31 1.92
Avg     0.00 - - - - - - -
Min     0.00 0.00 0.00 0.00 2.70 0.000 0.14 1.42